Time,TemperatureF,DewpointF,PressureIn,WindDirection,WindDirectionDegrees,WindSpeedMPH,WindSpeedGustMPH,Humidity,HourlyPrecipIn,Conditions,Clouds,dailyrainin,SoftwareType,DateUTC
2013-02-05 00:02:00,34.0,28.0,26.81,NNW,329,8.0,9.0,77,0.00,,,-99.99,,2013-02-05 06:02:00,
2013-02-05 00:07:00,34.0,28.0,26.81,NW,320,7.0,8.0,77,0.00,,,-99.99,,2013-02-05 06:07:00,
2013-02-05 00:12:00,34.0,28.0,26.82,NW,326,7.0,7.0,77,0.00,,,-99.99,,2013-02-05 06:12:00,
2013-02-05 00:17:00,34.0,28.0,26.82,NW,316,9.0,9.0,78,0.00,,,-99.99,,2013-02-05 06:17:00,
2013-02-05 00:22:00,34.0,28.0,26.82,NW,314,9.0,10.0,78,0.00,,,-99.99,,2013-02-05 06:22:00,
2013-02-05 00:27:00,34.0,28.0,26.82,NW,319,8.0,9.0,78,0.00,,,-99.99,,2013-02-05 06:27:00,
2013-02-05 00:32:00,34.0,28.0,26.82,NW,316,8.0,9.0,78,0.00,,,-99.99,,2013-02-05 06:32:00,
2013-02-05 00:37:00,33.0,27.0,26.82,NW,314,7.0,8.0,78,0.00,,,-99.99,,2013-02-05 06:37:00,
2013-02-05 00:42:00,33.0,27.0,26.83,North,0,0.0,0.0,78,0.00,,,-99.99,,2013-02-05 06:42:00,
2013-02-05 00:47:00,33.0,27.0,26.83,WSW,258,1.0,4.0,78,0.00,,,-99.99,,2013-02-05 06:47:00,
2013-02-05 00:52:00,33.0,27.0,26.83,NW,306,6.0,7.0,79,0.00,,,-99.99,,2013-02-05 06:52:00,
2013-02-05 00:57:00,33.0,27.0,26.83,NW,307,7.0,8.0,79,0.00,,,-99.99,,2013-02-05 06:57:00,
2013-02-05 01:02:00,33.0,27.0,26.83,NW,306,7.0,8.0,79,0.00,,,-99.99,,2013-02-05 07:02:00,
2013-02-05 01:07:00,33.0,27.0,26.83,WNW,303,5.0,6.0,79,0.00,,,-99.99,,2013-02-05 07:07:00,
2013-02-05 01:12:00,33.0,27.0,26.83,North,0,0.0,0.0,78,0.00,,,-99.99,,2013-02-05 07:12:00,
2013-02-05 01:17:00,32.0,27.0,26.83,NW,306,6.0,6.0,79,0.00,,,-99.99,,2013-02-05 07:17:00,
2013-02-05 01:22:00,32.0,27.0,26.83,NW,305,7.0,8.0,79,0.00,,,-99.99,,2013-02-05 07:22:00,
2013-02-05 01:27:00,31.0,25.0,26.83,WNW,303,8.0,9.0,79,0.00,,,-99.99,,2013-02-05 07:27:00,
2013-02-05 01:32:00,31.0,25.0,26.84,NW,309,9.0,9.0,80,0.00,,,-99.99,,2013-02-05 07:32:00,
2013-02-05 01:37:00,31.0,27.0,26.84,WNW,300,9.0,10.0,81,0.00,,,-99.99,,2013-02-05 07:37:00,
2013-02-05 01:42:00,32.0,27.0,26.84,NW,305,9.0,10.0,82,0.00,,,-99.99,,2013-02-05 07:42:00,
2013-02-05 01:47:00,32.0,27.0,26.83,NW,305,8.0,9.0,82,0.00,,,-99.99,,2013-02-05 07:47:00,
2013-02-05 01:52:00,32.0,27.0,26.83,NW,306,8.0,9.0,82,0.00,,,-99.99,,2013-02-05 07:52:00,
2013-02-05 01:57:00,32.0,27.0,26.83,WNW,299,8.0,9.0,82,0.00,,,-99.99,,2013-02-05 07:57:00,
2013-02-05 02:02:00,33.0,28.0,26.83,WNW,296,9.0,10.0,82,0.00,,,-99.99,,2013-02-05 08:02:00,
2013-02-05 02:07:00,33.0,28.0,26.83,NW,309,10.0,12.0,81,0.00,,,-99.99,,2013-02-05 08:07:00,
2013-02-05 02:12:00,34.0,28.0,26.83,WNW,302,8.0,10.0,80,0.00,,,-99.99,,2013-02-05 08:12:00,
2013-02-05 02:17:00,35.0,28.0,26.82,WNW,296,8.0,9.0,79,0.00,,,-99.99,,2013-02-05 08:17:00,
2013-02-05 02:22:00,35.0,28.0,26.82,NW,307,8.0,8.0,79,0.00,,,-99.99,,2013-02-05 08:22:00,
2013-02-05 02:27:00,34.0,28.0,26.83,WNW,285,4.0,5.0,79,0.00,,,-99.99,,2013-02-05 08:27:00,
2013-02-05 02:32:00,33.0,27.0,26.83,SW,234,6.0,7.0,78,0.00,,,-99.99,,2013-02-05 08:32:00,
2013-02-05 02:37:00,33.0,28.0,26.83,WNW,295,8.0,9.0,80,0.00,,,-99.99,,2013-02-05 08:37:00,
2013-02-05 02:42:00,33.0,28.0,26.83,WNW,296,8.0,9.0,81,0.00,,,-99.99,,2013-02-05 08:42:00,
2013-02-05 02:47:00,34.0,28.0,26.83,West,276,6.0,8.0,80,0.00,,,-99.99,,2013-02-05 08:47:00,
2013-02-05 02:52:00,34.0,28.0,26.84,SW,214,5.0,7.0,79,0.00,,,-99.99,,2013-02-05 08:52:00,
2013-02-05 02:57:00,32.0,27.0,26.84,SW,221,6.0,7.0,79,0.00,,,-99.99,,2013-02-05 08:57:00,
2013-02-05 03:02:00,31.0,27.0,26.84,WSW,241,6.0,7.0,81,0.00,,,-99.99,,2013-02-05 09:02:00,
2013-02-05 03:07:00,31.0,27.0,26.84,West,275,7.0,7.0,82,0.00,,,-99.99,,2013-02-05 09:07:00,
2013-02-05 03:12:00,30.0,25.0,26.83,WNW,292,7.0,7.0,82,0.00,,,-99.99,,2013-02-05 09:12:00,
2013-02-05 03:17:00,31.0,27.0,26.84,NW,307,10.0,10.0,83,0.00,,,-99.99,,2013-02-05 09:17:00,
2013-02-05 03:22:00,31.0,27.0,26.84,NW,309,10.0,11.0,83,0.00,,,-99.99,,2013-02-05 09:22:00,
2013-02-05 03:27:00,31.0,27.0,26.84,WNW,303,8.0,8.0,84,0.00,,,-99.99,,2013-02-05 09:27:00,
2013-02-05 03:32:00,31.0,27.0,26.84,WNW,288,6.0,6.0,82,0.00,,,-99.99,,2013-02-05 09:32:00,
2013-02-05 03:37:00,31.0,27.0,26.84,WNW,299,7.0,9.0,83,0.00,,,-99.99,,2013-02-05 09:37:00,
2013-02-05 03:43:00,32.0,27.0,26.84,West,272,6.0,7.0,83,0.00,,,-99.99,,2013-02-05 09:43:00,
2013-02-05 03:52:00,31.0,27.0,26.85,WNW,289,6.0,8.0,82,0.00,,,-99.99,,2013-02-05 09:52:00,
2013-02-05 03:57:00,31.0,27.0,26.85,WNW,282,8.0,8.0,83,0.00,,,-99.99,,2013-02-05 09:57:00,
2013-02-05 04:02:00,31.0,27.0,26.85,West,262,7.0,9.0,83,0.00,,,-99.99,,2013-02-05 10:02:00,
2013-02-05 04:07:00,31.0,27.0,26.85,WNW,282,9.0,11.0,83,0.00,,,-99.99,,2013-02-05 10:07:00,
2013-02-05 04:12:00,31.0,27.0,26.86,WNW,289,9.0,11.0,83,0.00,,,-99.99,,2013-02-05 10:12:00,
2013-02-05 04:17:00,31.0,27.0,26.85,West,266,8.0,10.0,83,0.00,,,-99.99,,2013-02-05 10:17:00,
2013-02-05 04:22:00,31.0,27.0,26.86,WNW,286,7.0,11.0,83,0.00,,,-99.99,,2013-02-05 10:22:00,
2013-02-05 04:27:00,31.0,27.0,26.86,West,279,7.0,9.0,83,0.00,,,-99.99,,2013-02-05 10:27:00,
2013-02-05 04:32:00,31.0,27.0,26.86,WNW,288,9.0,11.0,83,0.00,,,-99.99,,2013-02-05 10:32:00,
2013-02-05 04:37:00,31.0,27.0,26.85,WNW,296,11.0,12.0,83,0.00,,,-99.99,,2013-02-05 10:37:00,
2013-02-05 04:42:00,32.0,28.0,26.86,WNW,300,12.0,13.0,84,0.00,,,-99.99,,2013-02-05 10:42:00,
2013-02-05 04:47:00,33.0,28.0,26.86,WNW,295,12.0,14.0,83,0.00,,,-99.99,,2013-02-05 10:47:00,
2013-02-05 04:52:00,33.0,28.0,26.86,WNW,295,11.0,13.0,82,0.00,,,-99.99,,2013-02-05 10:52:00,
2013-02-05 04:57:00,33.0,28.0,26.86,WNW,300,10.0,11.0,82,0.00,,,-99.99,,2013-02-05 10:57:00,
2013-02-05 05:02:00,33.0,28.0,26.86,WNW,299,9.0,10.0,82,0.00,,,-99.99,,2013-02-05 11:02:00,
2013-02-05 05:07:00,32.0,27.0,26.86,WNW,299,9.0,11.0,82,0.00,,,-99.99,,2013-02-05 11:07:00,
2013-02-05 05:12:00,32.0,27.0,26.86,WNW,299,10.0,10.0,83,0.00,,,-99.99,,2013-02-05 11:12:00,
2013-02-05 05:22:00,32.0,28.0,26.86,WNW,296,7.0,9.0,84,0.00,,,-99.99,,2013-02-05 11:22:00,
2013-02-05 05:27:00,32.0,28.0,26.87,West,279,7.0,8.0,84,0.00,,,-99.99,,2013-02-05 11:27:00,
2013-02-05 05:32:00,31.0,27.0,26.87,WSW,247,7.0,8.0,84,0.00,,,-99.99,,2013-02-05 11:32:00,
2013-02-05 05:37:00,31.0,27.0,26.87,WSW,238,7.0,8.0,84,0.00,,,-99.99,,2013-02-05 11:37:00,
2013-02-05 05:42:00,30.0,27.0,26.87,WSW,258,7.0,8.0,85,0.00,,,-99.99,,2013-02-05 11:42:00,
2013-02-05 05:47:00,31.0,27.0,26.88,West,275,8.0,10.0,86,0.00,,,-99.99,,2013-02-05 11:47:00,
2013-02-05 05:52:00,31.0,27.0,26.87,West,268,9.0,10.0,85,0.00,,,-99.99,,2013-02-05 11:52:00,
2013-02-05 05:57:00,32.0,28.0,26.88,West,278,9.0,11.0,85,0.00,,,-99.99,,2013-02-05 11:57:00,
2013-02-05 06:02:00,32.0,28.0,26.88,West,281,8.0,10.0,84,0.00,,,-99.99,,2013-02-05 12:02:00,
2013-02-05 06:07:00,32.0,28.0,26.88,West,279,7.0,9.0,84,0.00,,,-99.99,,2013-02-05 12:07:00,
2013-02-05 06:12:00,32.0,27.0,26.88,West,269,7.0,9.0,83,0.00,,,-99.99,,2013-02-05 12:12:00,
2013-02-05 06:17:00,32.0,27.0,26.88,West,259,6.0,7.0,83,0.00,,,-99.99,,2013-02-05 12:17:00,
2013-02-05 06:22:00,31.0,27.0,26.88,West,262,6.0,7.0,84,0.00,,,-99.99,,2013-02-05 12:22:00,
2013-02-05 06:27:00,31.0,27.0,26.88,WSW,243,6.0,7.0,84,0.00,,,-99.99,,2013-02-05 12:27:00,
2013-02-05 06:32:00,30.0,27.0,26.88,WSW,237,7.0,9.0,85,0.00,,,-99.99,,2013-02-05 12:32:00,
2013-02-05 06:37:00,29.0,25.0,26.88,West,271,9.0,11.0,86,0.00,,,-99.99,,2013-02-05 12:37:00,
2013-02-05 06:42:00,29.0,25.0,26.88,West,259,8.0,10.0,87,0.00,,,-99.99,,2013-02-05 12:42:00,
2013-02-05 06:47:00,29.0,25.0,26.88,West,278,8.0,10.0,87,0.00,,,-99.99,,2013-02-05 12:47:00,
2013-02-05 06:52:00,29.0,25.0,26.89,West,274,7.0,9.0,87,0.00,,,-99.99,,2013-02-05 12:52:00,
2013-02-05 06:57:00,30.0,27.0,26.90,WNW,290,7.0,9.0,87,0.00,,,-99.99,,2013-02-05 12:57:00,
2013-02-05 07:02:00,30.0,27.0,26.90,WNW,282,8.0,9.0,87,0.00,,,-99.99,,2013-02-05 13:02:00,
2013-02-05 07:07:00,30.0,27.0,26.90,West,281,7.0,9.0,87,0.00,,,-99.99,,2013-02-05 13:07:00,
2013-02-05 07:12:00,30.0,27.0,26.90,West,271,7.0,8.0,86,0.00,,,-99.99,,2013-02-05 13:12:00,
2013-02-05 07:17:00,29.0,25.0,26.91,WNW,302,8.0,9.0,87,0.00,,,-99.99,,2013-02-05 13:17:00,
2013-02-05 07:22:00,29.0,25.0,26.91,NW,306,10.0,11.0,87,0.00,,,-99.99,,2013-02-05 13:22:00,
2013-02-05 07:27:00,30.0,27.0,26.91,NW,310,11.0,13.0,89,0.00,,,-99.99,,2013-02-05 13:27:00,
2013-02-05 07:32:00,30.0,27.0,26.91,NNW,329,11.0,12.0,88,0.00,,,-99.99,,2013-02-05 13:32:00,
2013-02-05 07:37:00,31.0,28.0,26.91,NNW,330,12.0,15.0,88,0.00,,,-99.99,,2013-02-05 13:37:00,
2013-02-05 07:42:00,31.0,28.0,26.91,NNW,344,11.0,13.0,88,0.00,,,-99.99,,2013-02-05 13:42:00,
2013-02-05 07:47:00,31.0,28.0,26.91,NNW,340,11.0,12.0,88,0.00,,,-99.99,,2013-02-05 13:47:00,
2013-02-05 07:52:00,31.0,28.0,26.92,NNW,337,11.0,13.0,87,0.00,,,-99.99,,2013-02-05 13:52:00,
2013-02-05 07:57:00,31.0,28.0,26.92,NNW,336,12.0,13.0,88,0.00,,,-99.99,,2013-02-05 13:57:00,
2013-02-05 08:02:00,30.0,27.0,26.93,NNW,341,12.0,15.0,88,0.00,,,-99.99,,2013-02-05 14:02:00,
2013-02-05 08:07:00,31.0,28.0,26.93,NNW,330,13.0,16.0,88,0.00,,,-99.99,,2013-02-05 14:07:00,
2013-02-05 08:12:00,31.0,28.0,26.93,NW,324,13.0,15.0,88,0.00,,,-99.99,,2013-02-05 14:12:00,
2013-02-05 08:17:00,31.0,28.0,26.93,NNW,330,12.0,14.0,87,0.00,,,-99.99,,2013-02-05 14:17:00,
2013-02-05 08:22:00,31.0,28.0,26.94,NW,323,12.0,13.0,87,0.00,,,-99.99,,2013-02-05 14:22:00,
2013-02-05 08:27:00,31.0,28.0,26.94,NW,320,12.0,14.0,87,0.00,,,-99.99,,2013-02-05 14:27:00,
2013-02-05 08:32:00,32.0,28.0,26.94,NNW,329,13.0,15.0,88,0.00,,,-99.99,,2013-02-05 14:32:00,
2013-02-05 08:37:00,32.0,28.0,26.94,NNW,329,13.0,15.0,87,0.00,,,-99.99,,2013-02-05 14:37:00,
2013-02-05 08:42:00,33.0,30.0,26.95,NW,317,13.0,15.0,87,0.00,,,-99.99,,2013-02-05 14:42:00,
2013-02-05 08:47:00,33.0,30.0,26.95,NNW,338,12.0,14.0,87,0.00,,,-99.99,,2013-02-05 14:47:00,
2013-02-05 08:52:00,34.0,30.0,26.95,NNW,337,14.0,16.0,86,0.00,,,-99.99,,2013-02-05 14:52:00,
2013-02-05 08:57:00,34.0,30.0,26.96,NNW,343,13.0,15.0,85,0.00,,,-99.99,,2013-02-05 14:57:00,
2013-02-05 09:02:00,35.0,30.0,26.96,NNW,340,13.0,15.0,84,0.00,,,-99.99,,2013-02-05 15:02:00,
2013-02-05 09:07:00,35.0,30.0,26.96,NNW,334,13.0,16.0,83,0.00,,,-99.99,,2013-02-05 15:07:00,
2013-02-05 09:12:00,36.0,32.0,26.96,NNW,344,14.0,17.0,83,0.00,,,-99.99,,2013-02-05 15:12:00,
2013-02-05 09:17:00,36.0,30.0,26.96,NNW,331,14.0,17.0,82,0.00,,,-99.99,,2013-02-05 15:17:00,
2013-02-05 09:22:00,36.0,30.0,26.96,NNW,327,14.0,16.0,82,0.00,,,-99.99,,2013-02-05 15:22:00,
2013-02-05 09:27:00,37.0,32.0,26.96,NW,321,13.0,15.0,82,0.00,,,-99.99,,2013-02-05 15:27:00,
2013-02-05 09:32:00,37.0,32.0,26.96,NNW,327,13.0,15.0,81,0.00,,,-99.99,,2013-02-05 15:32:00,
2013-02-05 09:37:00,38.0,32.0,26.96,NNW,329,13.0,15.0,81,0.00,,,-99.99,,2013-02-05 15:37:00,
2013-02-05 09:42:00,38.0,32.0,26.96,NNW,333,14.0,15.0,80,0.00,,,-99.99,,2013-02-05 15:42:00,
2013-02-05 09:47:00,39.0,34.0,26.96,NNW,329,14.0,15.0,80,0.00,,,-99.99,,2013-02-05 15:47:00,
2013-02-05 09:52:00,39.0,34.0,26.97,NNW,330,13.0,15.0,79,0.00,,,-99.99,,2013-02-05 15:52:00,
2013-02-05 09:57:00,40.0,34.0,26.96,NNW,333,13.0,15.0,78,0.00,,,-99.99,,2013-02-05 15:57:00,
2013-02-05 10:02:00,40.0,34.0,26.96,NNW,337,12.0,15.0,77,0.00,,,-99.99,,2013-02-05 16:02:00,
2013-02-05 10:07:00,41.0,34.0,26.97,NNW,337,13.0,14.0,76,0.00,,,-99.99,,2013-02-05 16:07:00,
2013-02-05 10:12:00,41.0,34.0,26.97,NNW,343,12.0,14.0,76,0.00,,,-99.99,,2013-02-05 16:12:00,
2013-02-05 10:17:00,41.0,34.0,26.97,NNW,334,12.0,13.0,75,0.00,,,-99.99,,2013-02-05 16:17:00,
2013-02-05 10:22:00,42.0,34.0,26.97,NNW,341,13.0,14.0,74,0.00,,,-99.99,,2013-02-05 16:22:00,
2013-02-05 10:27:00,42.0,34.0,26.97,NNW,341,12.0,13.0,74,0.00,,,-99.99,,2013-02-05 16:27:00,
2013-02-05 10:32:00,43.0,36.0,26.97,North,354,11.0,12.0,74,0.00,,,-99.99,,2013-02-05 16:32:00,
2013-02-05 10:37:00,43.0,36.0,26.97,North,351,11.0,13.0,73,0.00,,,-99.99,,2013-02-05 16:37:00,
2013-02-05 10:42:00,44.0,36.0,26.97,North,4,9.0,11.0,72,0.00,,,-99.99,,2013-02-05 16:42:00,
2013-02-05 10:47:00,45.0,37.0,26.98,NNW,333,7.0,8.0,72,0.00,,,-99.99,,2013-02-05 16:47:00,
2013-02-05 10:52:00,46.0,37.0,26.98,NNW,334,6.0,7.0,70,0.00,,,-99.99,,2013-02-05 16:52:00,
2013-02-05 10:57:00,47.0,37.0,26.98,NNW,347,7.0,8.0,68,0.00,,,-99.99,,2013-02-05 16:57:00,
2013-02-05 11:02:00,47.0,37.0,26.98,NW,324,6.0,8.0,68,0.00,,,-99.99,,2013-02-05 17:02:00,
2013-02-05 11:07:00,47.0,37.0,26.98,NNW,345,6.0,9.0,67,0.00,,,-99.99,,2013-02-05 17:07:00,
2013-02-05 11:12:00,48.0,37.0,26.98,North,360,6.0,8.0,66,0.00,,,-99.99,,2013-02-05 17:12:00,
2013-02-05 11:17:00,48.0,37.0,26.98,North,0,6.0,8.0,65,0.00,,,-99.99,,2013-02-05 17:17:00,
2013-02-05 11:22:00,48.0,37.0,26.98,North,355,6.0,8.0,65,0.00,,,-99.99,,2013-02-05 17:22:00,
2013-02-05 11:27:00,49.0,37.0,26.98,NNE,31,8.0,9.0,65,0.00,,,-99.99,,2013-02-05 17:27:00,
2013-02-05 11:32:00,49.0,37.0,26.99,North,10,9.0,10.0,64,0.00,,,-99.99,,2013-02-05 17:32:00,
2013-02-05 11:37:00,49.0,37.0,26.99,NNE,21,9.0,10.0,64,0.00,,,-99.99,,2013-02-05 17:37:00,
2013-02-05 11:42:00,49.0,37.0,26.99,North,354,9.0,12.0,64,0.00,,,-99.99,,2013-02-05 17:42:00,
2013-02-05 11:47:00,49.0,37.0,26.99,North,10,9.0,10.0,64,0.00,,,-99.99,,2013-02-05 17:47:00,
2013-02-05 11:52:00,49.0,37.0,26.98,NW,323,10.0,11.0,64,0.00,,,-99.99,,2013-02-05 17:52:00,
2013-02-05 11:57:00,50.0,37.0,26.98,North,3,10.0,12.0,63,0.00,,,-99.99,,2013-02-05 17:57:00,
2013-02-05 12:02:00,50.0,37.0,26.98,NNE,16,7.0,10.0,63,0.00,,,-99.99,,2013-02-05 18:02:00,
2013-02-05 12:07:00,50.0,37.0,26.97,North,354,8.0,9.0,62,0.00,,,-99.99,,2013-02-05 18:07:00,
2013-02-05 12:12:00,51.0,39.0,26.97,North,1,8.0,9.0,62,0.00,,,-99.99,,2013-02-05 18:12:00,
2013-02-05 12:17:00,51.0,37.0,26.97,NNE,21,5.0,6.0,61,0.00,,,-99.99,,2013-02-05 18:17:00,
2013-02-05 12:22:00,51.0,37.0,26.97,NNE,16,8.0,9.0,60,0.00,,,-99.99,,2013-02-05 18:22:00,
2013-02-05 12:27:00,52.0,37.0,26.97,NNE,13,7.0,8.0,59,0.00,,,-99.99,,2013-02-05 18:27:00,
2013-02-05 12:32:00,52.0,37.0,26.96,North,4,6.0,8.0,59,0.00,,,-99.99,,2013-02-05 18:32:00,
2013-02-05 12:37:00,52.0,37.0,26.96,NNW,330,3.0,5.0,58,0.00,,,-99.99,,2013-02-05 18:37:00,
2013-02-05 12:42:00,53.0,39.0,26.96,NNE,16,6.0,8.0,58,0.00,,,-99.99,,2013-02-05 18:42:00,
2013-02-05 12:47:00,53.0,37.0,26.96,North,1,6.0,7.0,57,0.00,,,-99.99,,2013-02-05 18:47:00,
2013-02-05 12:52:00,53.0,37.0,26.96,WNW,300,4.0,5.0,57,0.00,,,-99.99,,2013-02-05 18:52:00,
2013-02-05 12:57:00,53.0,37.0,26.96,North,10,3.0,7.0,56,0.00,,,-99.99,,2013-02-05 18:57:00,
2013-02-05 13:02:00,54.0,37.0,26.96,NNW,341,4.0,7.0,55,0.00,,,-99.99,,2013-02-05 19:02:00,
2013-02-05 13:07:00,54.0,37.0,26.96,NNE,20,6.0,7.0,54,0.00,,,-99.99,,2013-02-05 19:07:00,
2013-02-05 13:12:00,54.0,37.0,26.95,NE,48,5.0,7.0,54,0.00,,,-99.99,,2013-02-05 19:12:00,
2013-02-05 13:17:00,54.0,37.0,26.95,ENE,66,4.0,5.0,54,0.00,,,-99.99,,2013-02-05 19:17:00,
2013-02-05 13:22:00,54.0,37.0,26.95,North,0,0.0,0.0,53,0.00,,,-99.99,,2013-02-05 19:22:00,
2013-02-05 13:27:00,54.0,37.0,26.95,South,172,0.0,3.0,53,0.00,,,-99.99,,2013-02-05 19:27:00,
2013-02-05 13:32:00,55.0,37.0,26.94,South,188,4.0,5.0,53,0.00,,,-99.99,,2013-02-05 19:32:00,
2013-02-05 13:37:00,55.0,37.0,26.94,WSW,241,4.0,4.0,52,0.00,,,-99.99,,2013-02-05 19:37:00,
2013-02-05 13:42:00,56.0,39.0,26.94,SSE,164,3.0,4.0,52,0.00,,,-99.99,,2013-02-05 19:42:00,
2013-02-05 13:47:00,56.0,37.0,26.94,North,0,0.0,0.0,51,0.00,,,-99.99,,2013-02-05 19:47:00,
2013-02-05 13:52:00,56.0,37.0,26.93,North,0,0.0,0.0,50,0.00,,,-99.99,,2013-02-05 19:52:00,
2013-02-05 13:57:00,56.0,37.0,26.93,East,87,4.0,4.0,51,0.00,,,-99.99,,2013-02-05 19:57:00,
2013-02-05 14:02:00,56.0,37.0,26.93,NE,56,1.0,2.0,51,0.00,,,-99.99,,2013-02-05 20:02:00,
2013-02-05 14:07:00,56.0,37.0,26.92,West,271,4.0,6.0,51,0.00,,,-99.99,,2013-02-05 20:07:00,
2013-02-05 14:12:00,56.0,37.0,26.92,WSW,237,6.0,7.0,51,0.00,,,-99.99,,2013-02-05 20:12:00,
2013-02-05 14:17:00,56.0,37.0,26.92,NW,305,5.0,6.0,51,0.00,,,-99.99,,2013-02-05 20:17:00,
2013-02-05 14:22:00,56.0,37.0,26.92,North,0,0.0,0.0,51,0.00,,,-99.99,,2013-02-05 20:22:00,
2013-02-05 14:27:00,56.0,37.0,26.91,NW,305,2.0,4.0,51,0.00,,,-99.99,,2013-02-05 20:27:00,
2013-02-05 14:32:00,57.0,39.0,26.91,SW,226,4.0,5.0,50,0.00,,,-99.99,,2013-02-05 20:32:00,
2013-02-05 14:37:00,57.0,39.0,26.91,SW,233,5.0,8.0,50,0.00,,,-99.99,,2013-02-05 20:37:00,
2013-02-05 14:42:00,57.0,37.0,26.91,WNW,295,5.0,7.0,49,0.00,,,-99.99,,2013-02-05 20:42:00,
2013-02-05 14:47:00,57.0,37.0,26.90,West,278,2.0,4.0,49,0.00,,,-99.99,,2013-02-05 20:47:00,
2013-02-05 14:52:00,57.0,37.0,26.90,WNW,292,3.0,4.0,49,0.00,,,-99.99,,2013-02-05 20:52:00,
2013-02-05 14:57:00,57.0,37.0,26.90,North,0,0.0,0.0,49,0.00,,,-99.99,,2013-02-05 20:57:00,
2013-02-05 15:02:00,57.0,37.0,26.89,West,272,5.0,7.0,49,0.00,,,-99.99,,2013-02-05 21:02:00,
2013-02-05 15:07:00,57.0,37.0,26.89,SSW,192,6.0,8.0,49,0.00,,,-99.99,,2013-02-05 21:07:00,
2013-02-05 15:12:00,58.0,39.0,26.89,SSW,203,4.0,6.0,48,0.00,,,-99.99,,2013-02-05 21:12:00,
2013-02-05 15:17:00,58.0,39.0,26.89,SSW,209,3.0,6.0,48,0.00,,,-99.99,,2013-02-05 21:17:00,
2013-02-05 15:22:00,59.0,39.0,26.89,WSW,244,7.0,9.0,48,0.00,,,-99.99,,2013-02-05 21:22:00,
2013-02-05 15:27:00,59.0,39.0,26.89,SSW,206,6.0,9.0,48,0.00,,,-99.99,,2013-02-05 21:27:00,
2013-02-05 15:32:00,59.0,39.0,26.89,SSW,197,9.0,11.0,47,0.00,,,-99.99,,2013-02-05 21:32:00,
2013-02-05 15:37:00,59.0,39.0,26.89,SSW,200,7.0,10.0,47,0.00,,,-99.99,,2013-02-05 21:37:00,
2013-02-05 15:42:00,59.0,37.0,26.88,SSW,195,7.0,9.0,46,0.00,,,-99.99,,2013-02-05 21:42:00,
2013-02-05 15:47:00,59.0,39.0,26.89,SW,217,7.0,8.0,47,0.00,,,-99.99,,2013-02-05 21:47:00,
2013-02-05 15:52:00,59.0,39.0,26.88,SSW,200,7.0,9.0,47,0.00,,,-99.99,,2013-02-05 21:52:00,
2013-02-05 15:57:00,59.0,37.0,26.88,SSW,193,7.0,8.0,46,0.00,,,-99.99,,2013-02-05 21:57:00,
2013-02-05 16:02:00,59.0,37.0,26.88,SSW,200,5.0,6.0,46,0.00,,,-99.99,,2013-02-05 22:02:00,
2013-02-05 16:07:00,58.0,37.0,26.89,WSW,238,5.0,7.0,46,0.00,,,-99.99,,2013-02-05 22:07:00,
2013-02-05 16:12:00,58.0,37.0,26.89,WSW,237,4.0,6.0,46,0.00,,,-99.99,,2013-02-05 22:12:00,
2013-02-05 16:17:00,58.0,37.0,26.88,WSW,241,4.0,6.0,47,0.00,,,-99.99,,2013-02-05 22:17:00,
2013-02-05 16:22:00,57.0,37.0,26.88,WSW,240,5.0,7.0,47,0.00,,,-99.99,,2013-02-05 22:22:00,
2013-02-05 16:27:00,57.0,37.0,26.88,SW,221,4.0,5.0,48,0.00,,,-99.99,,2013-02-05 22:27:00,
2013-02-05 16:32:00,58.0,37.0,26.88,SSW,202,6.0,9.0,47,0.00,,,-99.99,,2013-02-05 22:32:00,
2013-02-05 16:37:00,59.0,37.0,26.88,SSW,200,6.0,7.0,46,0.00,,,-99.99,,2013-02-05 22:37:00,
2013-02-05 16:42:00,59.0,37.0,26.88,South,171,6.0,7.0,46,0.00,,,-99.99,,2013-02-05 22:42:00,
2013-02-05 16:47:00,59.0,37.0,26.88,SSE,166,5.0,5.0,46,0.00,,,-99.99,,2013-02-05 22:47:00,
2013-02-05 16:52:00,59.0,37.0,26.88,SSE,161,6.0,7.0,46,0.00,,,-99.99,,2013-02-05 22:52:00,
2013-02-05 16:57:00,59.0,37.0,26.88,SSE,159,6.0,7.0,46,0.00,,,-99.99,,2013-02-05 22:57:00,
2013-02-05 17:02:00,59.0,37.0,26.88,SSW,196,5.0,7.0,46,0.00,,,-99.99,,2013-02-05 23:02:00,
2013-02-05 17:07:00,59.0,37.0,26.88,South,176,6.0,7.0,46,0.00,,,-99.99,,2013-02-05 23:07:00,
2013-02-05 17:12:00,59.0,37.0,26.88,SSE,168,5.0,6.0,46,0.00,,,-99.99,,2013-02-05 23:12:00,
2013-02-05 17:17:00,58.0,37.0,26.88,SE,141,6.0,8.0,46,0.00,,,-99.99,,2013-02-05 23:17:00,
2013-02-05 17:22:00,58.0,37.0,26.88,SSE,151,6.0,7.0,47,0.00,,,-99.99,,2013-02-05 23:22:00,
2013-02-05 17:27:00,57.0,37.0,26.88,SE,137,7.0,9.0,47,0.00,,,-99.99,,2013-02-05 23:27:00,
2013-02-05 17:32:00,56.0,37.0,26.88,SSE,158,7.0,8.0,48,0.00,,,-99.99,,2013-02-05 23:32:00,
2013-02-05 17:37:00,55.0,36.0,26.88,SSE,147,8.0,9.0,49,0.00,,,-99.99,,2013-02-05 23:37:00,
2013-02-05 17:47:00,52.0,36.0,26.88,SSE,152,9.0,10.0,52,0.00,,,-99.99,,2013-02-05 23:47:00,
2013-02-05 17:52:00,50.0,34.0,26.87,SSE,149,9.0,10.0,53,0.00,,,-99.99,,2013-02-05 23:52:00,
2013-02-05 17:57:00,49.0,34.0,26.87,SSE,148,10.0,10.0,54,0.00,,,-99.99,,2013-02-05 23:57:00,
2013-02-05 18:02:00,48.0,34.0,26.87,SSE,149,10.0,10.0,56,0.00,,,-99.99,,2013-02-06 00:02:00,
2013-02-05 18:07:00,47.0,32.0,26.87,SSE,149,10.0,11.0,57,0.00,,,-99.99,,2013-02-06 00:07:00,
2013-02-05 18:12:00,47.0,34.0,26.87,SSE,149,10.0,11.0,58,0.00,,,-99.99,,2013-02-06 00:12:00,
2013-02-05 18:17:00,46.0,32.0,26.87,SSE,147,10.0,10.0,58,0.00,,,-99.99,,2013-02-06 00:17:00,
2013-02-05 18:22:00,45.0,32.0,26.87,SSE,151,10.0,10.0,59,0.00,,,-99.99,,2013-02-06 00:22:00,
2013-02-05 18:27:00,45.0,32.0,26.87,SSE,154,11.0,11.0,60,0.00,,,-99.99,,2013-02-06 00:27:00,
2013-02-05 18:32:00,45.0,32.0,26.88,SSE,152,11.0,12.0,61,0.00,,,-99.99,,2013-02-06 00:32:00,
2013-02-05 18:37:00,44.0,32.0,26.88,SSE,151,11.0,11.0,61,0.00,,,-99.99,,2013-02-06 00:37:00,
2013-02-05 18:42:00,44.0,32.0,26.88,SSE,151,11.0,12.0,62,0.00,,,-99.99,,2013-02-06 00:42:00,
2013-02-05 18:47:00,44.0,32.0,26.88,SSE,148,10.0,11.0,63,0.00,,,-99.99,,2013-02-06 00:47:00,
2013-02-05 18:52:00,44.0,32.0,26.88,SSE,152,9.0,11.0,63,0.00,,,-99.99,,2013-02-06 00:52:00,
2013-02-05 18:57:00,43.0,32.0,26.88,SSE,158,9.0,9.0,64,0.00,,,-99.99,,2013-02-06 00:57:00,
2013-02-05 19:02:00,43.0,32.0,26.88,SSE,149,8.0,9.0,64,0.00,,,-99.99,,2013-02-06 01:02:00,
2013-02-05 19:12:00,41.0,30.0,26.88,SSE,151,9.0,9.0,66,0.00,,,-99.99,,2013-02-06 01:12:00,
2013-02-05 19:17:00,40.0,30.0,26.88,SSE,149,9.0,9.0,66,0.00,,,-99.99,,2013-02-06 01:17:00,
2013-02-05 19:22:00,40.0,30.0,26.88,SSE,149,8.0,9.0,67,0.00,,,-99.99,,2013-02-06 01:22:00,
2013-02-05 19:27:00,40.0,30.0,26.89,SSE,157,7.0,8.0,68,0.00,,,-99.99,,2013-02-06 01:27:00,
2013-02-05 19:32:00,39.0,30.0,26.88,SSE,154,4.0,5.0,69,0.00,,,-99.99,,2013-02-06 01:32:00,
2013-02-05 19:37:00,39.0,30.0,26.89,SSE,158,5.0,6.0,70,0.00,,,-99.99,,2013-02-06 01:37:00,
2013-02-05 19:42:00,39.0,30.0,26.89,North,0,0.0,0.0,70,0.00,,,-99.99,,2013-02-06 01:42:00,
2013-02-05 19:47:00,39.0,30.0,26.88,North,0,0.0,0.0,70,0.00,,,-99.99,,2013-02-06 01:47:00,
2013-02-05 19:52:00,38.0,30.0,26.88,SSE,152,9.0,9.0,71,0.00,,,-99.99,,2013-02-06 01:52:00,
2013-02-05 19:57:00,38.0,30.0,26.88,SSE,149,9.0,9.0,72,0.00,,,-99.99,,2013-02-06 01:57:00,
2013-02-05 20:02:00,39.0,30.0,26.89,SSE,157,8.0,9.0,73,0.00,,,-99.99,,2013-02-06 02:02:00,
2013-02-05 20:07:00,39.0,30.0,26.88,SSE,154,9.0,10.0,73,0.00,,,-99.99,,2013-02-06 02:07:00,
2013-02-05 20:12:00,39.0,30.0,26.88,SSE,157,9.0,10.0,73,0.00,,,-99.99,,2013-02-06 02:12:00,
2013-02-05 20:17:00,39.0,30.0,26.88,SSE,154,9.0,10.0,73,0.00,,,-99.99,,2013-02-06 02:17:00,
2013-02-05 20:22:00,39.0,30.0,26.88,SSE,161,9.0,10.0,73,0.00,,,-99.99,,2013-02-06 02:22:00,
2013-02-05 20:27:00,39.0,30.0,26.88,SSE,154,8.0,10.0,73,0.00,,,-99.99,,2013-02-06 02:27:00,
2013-02-05 20:32:00,39.0,32.0,26.88,SSE,154,10.0,11.0,74,0.00,,,-99.99,,2013-02-06 02:32:00,
2013-02-05 20:37:00,39.0,32.0,26.88,SSE,159,10.0,11.0,74,0.00,,,-99.99,,2013-02-06 02:37:00,
2013-02-05 20:42:00,39.0,32.0,26.88,SSE,154,9.0,11.0,74,0.00,,,-99.99,,2013-02-06 02:42:00,
2013-02-05 20:47:00,39.0,32.0,26.88,SSE,157,9.0,11.0,74,0.00,,,-99.99,,2013-02-06 02:47:00,
2013-02-05 20:52:00,39.0,32.0,26.88,SSE,159,9.0,10.0,74,0.00,,,-99.99,,2013-02-06 02:52:00,
2013-02-05 20:57:00,39.0,32.0,26.88,SSE,151,8.0,10.0,74,0.00,,,-99.99,,2013-02-06 02:57:00,
2013-02-05 21:02:00,38.0,30.0,26.88,SSE,149,9.0,10.0,75,0.00,,,-99.99,,2013-02-06 03:02:00,
2013-02-05 21:07:00,38.0,30.0,26.88,SSE,152,9.0,11.0,75,0.00,,,-99.99,,2013-02-06 03:07:00,
2013-02-05 21:12:00,38.0,32.0,26.88,SE,144,9.0,10.0,76,0.00,,,-99.99,,2013-02-06 03:12:00,
2013-02-05 21:17:00,38.0,32.0,26.88,SE,140,9.0,11.0,76,0.00,,,-99.99,,2013-02-06 03:17:00,
2013-02-05 21:22:00,38.0,32.0,26.87,SSE,157,10.0,12.0,76,0.00,,,-99.99,,2013-02-06 03:22:00,
2013-02-05 21:27:00,39.0,32.0,26.87,SSE,147,10.0,13.0,76,0.00,,,-99.99,,2013-02-06 03:27:00,
2013-02-05 21:32:00,39.0,32.0,26.87,SSE,152,10.0,11.0,76,0.00,,,-99.99,,2013-02-06 03:32:00,
2013-02-05 21:37:00,39.0,32.0,26.87,SSE,157,10.0,12.0,76,0.00,,,-99.99,,2013-02-06 03:37:00,
2013-02-05 21:42:00,39.0,32.0,26.87,SSE,154,10.0,11.0,76,0.00,,,-99.99,,2013-02-06 03:42:00,
2013-02-05 21:47:00,39.0,32.0,26.87,SSE,158,9.0,11.0,76,0.00,,,-99.99,,2013-02-06 03:47:00,
2013-02-05 21:52:00,40.0,34.0,26.87,SSE,151,10.0,12.0,76,0.00,,,-99.99,,2013-02-06 03:52:00,
2013-02-05 21:57:00,40.0,34.0,26.87,SSE,159,9.0,12.0,76,0.00,,,-99.99,,2013-02-06 03:57:00,
2013-02-05 22:02:00,40.0,34.0,26.87,SSE,164,11.0,14.0,76,0.00,,,-99.99,,2013-02-06 04:02:00,
2013-02-05 22:07:00,40.0,34.0,26.87,SSE,165,11.0,13.0,76,0.00,,,-99.99,,2013-02-06 04:07:00,
2013-02-05 22:12:00,40.0,34.0,26.87,SSE,165,11.0,13.0,76,0.00,,,-99.99,,2013-02-06 04:12:00,
2013-02-05 22:17:00,40.0,34.0,26.87,SSE,161,12.0,14.0,76,0.00,,,-99.99,,2013-02-06 04:17:00,
2013-02-05 22:22:00,40.0,34.0,26.87,SSE,159,12.0,14.0,76,0.00,,,-99.99,,2013-02-06 04:22:00,
2013-02-05 22:27:00,40.0,34.0,26.87,South,169,10.0,12.0,76,0.00,,,-99.99,,2013-02-06 04:27:00,
2013-02-05 22:32:00,40.0,34.0,26.87,South,175,12.0,15.0,76,0.00,,,-99.99,,2013-02-06 04:32:00,
2013-02-05 22:37:00,40.0,34.0,26.87,South,180,11.0,13.0,76,0.00,,,-99.99,,2013-02-06 04:37:00,
2013-02-05 22:42:00,40.0,34.0,26.87,South,169,11.0,13.0,77,0.00,,,-99.99,,2013-02-06 04:42:00,
2013-02-05 22:47:00,39.0,32.0,26.87,South,183,10.0,12.0,77,0.00,,,-99.99,,2013-02-06 04:47:00,
2013-02-05 22:52:00,39.0,32.0,26.87,South,173,10.0,12.0,77,0.00,,,-99.99,,2013-02-06 04:52:00,
2013-02-05 22:57:00,39.0,32.0,26.86,South,189,10.0,13.0,77,0.00,,,-99.99,,2013-02-06 04:57:00,
2013-02-05 23:02:00,39.0,32.0,26.86,South,175,12.0,14.0,78,0.00,,,-99.99,,2013-02-06 05:02:00,
2013-02-05 23:07:00,39.0,32.0,26.86,South,171,11.0,14.0,78,0.00,,,-99.99,,2013-02-06 05:07:00,
2013-02-05 23:12:00,39.0,32.0,26.86,SSE,165,12.0,15.0,78,0.00,,,-99.99,,2013-02-06 05:12:00,
2013-02-05 23:17:00,38.0,32.0,26.86,SSW,199,10.0,14.0,78,0.00,,,-99.99,,2013-02-06 05:17:00,
2013-02-05 23:22:00,38.0,32.0,26.86,SSW,192,11.0,13.0,79,0.00,,,-99.99,,2013-02-06 05:22:00,
2013-02-05 23:27:00,38.0,32.0,26.86,South,171,10.0,12.0,79,0.00,,,-99.99,,2013-02-06 05:27:00,
2013-02-05 23:32:00,38.0,32.0,26.86,SSE,168,11.0,13.0,79,0.00,,,-99.99,,2013-02-06 05:32:00,
2013-02-05 23:37:00,38.0,32.0,26.86,SSE,162,10.0,11.0,79,0.00,,,-99.99,,2013-02-06 05:37:00,
2013-02-05 23:42:00,38.0,32.0,26.86,South,176,10.0,12.0,80,0.00,,,-99.99,,2013-02-06 05:42:00,
2013-02-05 23:47:00,38.0,32.0,26.86,South,173,10.0,12.0,80,0.00,,,-99.99,,2013-02-06 05:47:00,
2013-02-05 23:52:00,37.0,32.0,26.86,South,175,11.0,13.0,80,0.00,,,-99.99,,2013-02-06 05:52:00,
2013-02-05 23:57:00,37.0,32.0,26.86,South,172,11.0,14.0,81,0.00,,,-99.99,,2013-02-06 05:57:00,